createdAt,value
2023-03-16T00:02:30.493Z,26.04
2023-03-16T00:06:30.571Z,26.01
2023-03-16T00:10:30.590Z,26.03
2023-03-16T00:14:30.675Z,26.03
2023-03-16T00:18:30.750Z,26.01
2023-03-16T00:22:30.783Z,26.01
2023-03-16T00:26:30.777Z,26.00
2023-03-16T00:30:31.045Z,26.00
2023-03-16T00:34:30.961Z,25.99
2023-03-16T00:38:30.898Z,25.99
2023-03-16T00:42:30.965Z,25.97
2023-03-16T00:46:31.002Z,25.97
2023-03-16T00:50:31.122Z,25.97
2023-03-16T00:54:31.192Z,25.96
2023-03-16T00:58:31.333Z,25.96
2023-03-16T01:02:31.362Z,25.96
2023-03-16T01:06:31.432Z,25.96
2023-03-16T01:10:31.541Z,25.93
2023-03-16T01:14:31.612Z,25.94
2023-03-16T01:18:31.611Z,25.90
2023-03-16T01:22:31.696Z,25.92
2023-03-16T01:26:31.685Z,25.90
2023-03-16T01:30:31.862Z,25.90
2023-03-16T01:34:31.868Z,25.92
2023-03-16T01:38:31.962Z,25.92
2023-03-16T01:42:32.004Z,25.89
2023-03-16T01:46:32.109Z,25.87
2023-03-16T01:50:32.153Z,25.87
2023-03-16T01:54:32.152Z,25.87
2023-03-16T01:58:32.221Z,25.87
2023-03-16T02:02:32.273Z,25.87
2023-03-16T02:06:32.264Z,25.84
2023-03-16T02:10:32.307Z,25.86
2023-03-16T02:14:32.315Z,25.83
2023-03-16T02:18:32.331Z,25.84
2023-03-16T02:22:32.304Z,25.83
2023-03-16T02:26:32.270Z,25.83
2023-03-16T02:30:32.294Z,25.82
2023-03-16T02:34:32.288Z,25.79
2023-03-16T02:38:32.322Z,25.83
2023-03-16T02:42:32.268Z,25.80
2023-03-16T02:46:32.407Z,25.82
2023-03-16T02:50:32.219Z,25.77
2023-03-16T02:54:32.286Z,25.79
2023-03-16T02:58:32.283Z,25.79
2023-03-16T03:02:33.167Z,25.77
2023-03-16T03:06:32.275Z,25.77
2023-03-16T03:10:32.252Z,25.77
2023-03-16T03:14:32.265Z,25.77
2023-03-16T03:18:32.251Z,25.76
2023-03-16T03:22:32.260Z,25.76
2023-03-16T03:26:32.180Z,25.72
2023-03-16T03:30:32.189Z,25.75
2023-03-16T03:34:32.175Z,25.73
2023-03-16T03:38:32.270Z,25.72
2023-03-16T03:42:32.204Z,25.73
2023-03-16T03:46:32.434Z,25.73
2023-03-16T03:50:32.180Z,25.72
2023-03-16T03:54:32.273Z,25.69
2023-03-16T03:58:32.257Z,25.70
2023-03-16T04:02:32.322Z,25.70
2023-03-16T04:06:32.181Z,25.70
2023-03-16T04:10:32.207Z,25.69
2023-03-16T04:14:32.311Z,25.68
2023-03-16T04:18:32.260Z,25.66
2023-03-16T04:22:32.295Z,25.69
2023-03-16T04:26:32.389Z,25.66
2023-03-16T04:30:32.494Z,25.65
2023-03-16T04:34:32.425Z,25.66
2023-03-16T04:38:32.464Z,25.65
2023-03-16T04:42:32.486Z,25.66
2023-03-16T04:46:32.658Z,25.62
2023-03-16T04:50:32.592Z,25.62
2023-03-16T04:54:32.623Z,25.63
2023-03-16T04:58:32.655Z,25.62
2023-03-16T05:02:32.667Z,25.63
2023-03-16T05:06:32.724Z,25.61
2023-03-16T05:10:32.797Z,25.62
2023-03-16T05:14:32.861Z,25.58
2023-03-16T05:18:32.885Z,25.58
2023-03-16T05:22:33.058Z,25.56
2023-03-16T05:26:33.064Z,25.49
2023-03-16T05:30:33.168Z,25.52
2023-03-16T05:34:33.247Z,25.52
2023-03-16T05:38:33.335Z,25.56
2023-03-16T05:42:33.418Z,25.59
2023-03-16T05:46:33.571Z,25.62
2023-03-16T05:50:33.471Z,25.66
2023-03-16T05:54:33.488Z,25.70
2023-03-16T05:58:33.527Z,25.72
2023-03-16T06:02:33.551Z,25.75
2023-03-16T06:06:33.553Z,25.79
2023-03-16T06:10:33.573Z,25.87
2023-03-16T06:14:33.623Z,27.28
2023-03-16T06:18:33.796Z,27.74
2023-03-16T06:22:33.895Z,27.24
2023-03-16T06:26:33.904Z,27.05
2023-03-16T06:30:33.950Z,26.79
2023-03-16T06:34:34.104Z,26.75
2023-03-16T06:38:35.114Z,26.85
2023-03-16T06:42:34.754Z,26.98
2023-03-16T06:46:34.501Z,27.10
2023-03-16T06:50:35.751Z,27.25
2023-03-16T06:54:34.728Z,27.52
2023-03-16T06:58:34.888Z,27.69
2023-03-16T07:02:35.076Z,27.77
2023-03-16T07:06:35.267Z,27.93
2023-03-16T07:10:35.325Z,28.00
2023-03-16T07:14:35.793Z,28.05
2023-03-16T07:18:35.532Z,28.13
2023-03-16T07:22:35.550Z,28.21
2023-03-16T07:26:35.580Z,28.30
2023-03-16T07:30:35.792Z,28.37
2023-03-16T07:34:35.904Z,28.38
2023-03-16T07:38:36.354Z,28.43
2023-03-16T07:42:36.376Z,28.50
2023-03-16T07:46:36.319Z,28.52
2023-03-16T07:50:36.416Z,28.58
2023-03-16T07:54:36.542Z,28.69
2023-03-16T07:58:39.818Z,28.78
2023-03-16T08:02:36.823Z,28.81
2023-03-16T08:06:36.699Z,28.86
2023-03-16T08:10:36.620Z,28.88
2023-03-16T08:14:36.542Z,28.94
2023-03-16T08:18:36.850Z,28.92
2023-03-16T08:22:36.538Z,29.01
2023-03-16T08:26:39.517Z,28.98
2023-03-16T08:30:36.791Z,29.05
2023-03-16T08:34:36.855Z,29.03
2023-03-16T08:38:36.393Z,29.10
2023-03-16T08:42:36.778Z,29.20
2023-03-16T08:46:36.844Z,29.29
2023-03-16T08:50:36.255Z,29.30
2023-03-16T08:54:36.288Z,29.42
2023-03-16T08:58:36.173Z,29.42
2023-03-16T09:02:36.139Z,29.42
2023-03-16T09:06:36.080Z,29.39
2023-03-16T09:10:36.061Z,29.32
2023-03-16T09:14:36.323Z,29.06
2023-03-16T09:18:36.308Z,28.88
2023-03-16T09:22:35.964Z,28.55
2023-03-16T09:26:36.331Z,28.45
2023-03-16T09:30:35.997Z,27.87
2023-03-16T09:34:36.222Z,27.59
2023-03-16T09:38:36.383Z,27.33
2023-03-16T09:42:41.128Z,27.24
2023-03-16T09:46:39.383Z,27.39
2023-03-16T09:50:47.575Z,27.62
2023-03-16T09:54:37.352Z,27.83
2023-03-16T09:58:36.232Z,28.05
2023-03-16T10:02:36.177Z,28.23
2023-03-16T10:06:36.326Z,28.34
2023-03-16T10:10:36.200Z,28.40
2023-03-16T10:14:36.436Z,28.48
2023-03-16T10:18:36.421Z,28.55
2023-03-16T10:22:36.846Z,28.62
2023-03-16T10:26:36.398Z,28.66
2023-03-16T10:30:36.894Z,28.54
2023-03-16T10:34:36.308Z,28.51
2023-03-16T10:38:36.327Z,28.54
2023-03-16T10:42:36.919Z,28.61
2023-03-16T10:46:36.276Z,28.68
2023-03-16T10:50:36.170Z,28.76
2023-03-16T10:54:36.138Z,28.72
2023-03-16T10:58:36.108Z,28.68
2023-03-16T11:02:36.184Z,28.65
2023-03-16T15:42:55.120Z,31.30
2023-03-16T15:46:55.400Z,31.27
2023-03-16T15:50:55.535Z,31.26
2023-03-16T15:54:55.763Z,31.23
2023-03-16T15:58:55.942Z,31.22
2023-03-16T16:02:56.189Z,31.12
2023-03-16T16:06:56.355Z,31.12
2023-03-16T16:10:56.573Z,31.02
2023-03-16T16:14:56.554Z,30.95
2023-03-16T16:18:56.539Z,30.89
2023-03-16T16:22:56.514Z,30.82
2023-03-16T16:26:56.454Z,30.75
2023-03-16T16:58:56.134Z,30.22
2023-03-16T17:02:56.129Z,30.17
2023-03-16T17:06:56.068Z,30.10
2023-03-16T17:10:56.059Z,30.01
2023-03-16T17:14:56.061Z,29.94
2023-03-16T17:18:55.964Z,29.92
2023-03-16T18:02:55.789Z,29.37
2023-03-16T18:14:55.646Z,29.23
2023-03-16T18:18:55.603Z,29.20
2023-03-16T18:22:55.562Z,29.17
2023-03-16T18:26:55.547Z,29.12
2023-03-16T18:30:55.608Z,29.08
2023-03-16T18:34:55.526Z,29.02
2023-03-16T18:38:55.473Z,29.01
2023-03-16T18:42:55.391Z,28.94
2023-03-16T18:46:55.394Z,28.91
2023-03-16T18:50:55.449Z,28.83
2023-03-16T18:54:55.683Z,28.81
2023-03-16T18:58:55.825Z,28.74
2023-03-16T19:02:55.805Z,28.66
2023-03-16T19:06:55.767Z,28.55
2023-03-16T19:10:55.718Z,28.51
2023-03-16T19:14:55.665Z,28.48
2023-03-16T19:18:55.638Z,28.45
2023-03-16T19:22:55.612Z,28.45
2023-03-16T19:26:55.555Z,28.41
2023-03-16T19:54:55.743Z,28.25
2023-03-16T20:14:55.614Z,28.17
2023-03-16T20:18:55.639Z,28.15
2023-03-16T20:22:55.614Z,28.14
